Vanzant, Kentucky
Current Conditions -  °F | °C
As of 12:20 AM on Monday 26 Jan 2015 (Local Time) from KOWB Reporting Station
Overcast Overcast  
Wind Chill: 24°   Ceiling: 1000
Heat Index: 34°   Visibility: 10mi
Dew Point: 30°   Wind: 14mph
Humidity: 87%   Direction: 350°N
Pressure: 29.83"   Gusts: 24mph
Location:  37.6217°N, 86.5365°W
Report Text: KOWB 260620Z AUTO 35012G21KT 10SM OVC010 01/M01 A2983 RMK AO2 TSNO UPE10 P0000
Loading
Personal Weather Stations






























Interactive Weather Map New forecast layout! Learn more

10-Day Weather Forecast

Advertisements
Track Severe Weather on mobile